createdAt,value
2023-02-22T00:02:26.114Z,85.26
2023-02-22T00:04:55.266Z,84.38
2023-02-22T00:07:24.722Z,83.67
2023-02-22T00:09:53.111Z,84.44
2023-02-22T00:12:21.541Z,84.51
2023-02-22T00:14:52.126Z,83.72
2023-02-22T00:17:21.446Z,82.30
2023-02-22T00:19:51.160Z,81.33
2023-02-22T00:22:20.538Z,81.08
2023-02-22T00:24:49.398Z,79.19
2023-02-22T00:27:17.895Z,80.36
2023-02-22T00:29:47.338Z,80.48
2023-02-22T00:32:16.492Z,79.66
2023-02-22T00:34:44.865Z,79.78
2023-02-22T00:37:13.166Z,79.36
2023-02-22T00:39:41.660Z,78.48
2023-02-22T00:42:10.426Z,77.83
2023-02-22T00:44:38.717Z,76.46
2023-02-22T00:47:07.119Z,76.65
2023-02-22T00:49:36.018Z,75.90
2023-02-22T00:52:05.712Z,74.58
2023-02-22T00:54:34.154Z,75.30
2023-02-22T00:57:02.935Z,76.23
2023-02-22T00:59:32.110Z,74.19
2023-02-22T01:02:00.607Z,75.07
2023-02-22T01:04:29.177Z,72.84
2023-02-22T01:06:57.706Z,73.75
2023-02-22T01:09:26.016Z,72.54
2023-02-22T01:11:56.394Z,73.57
2023-02-22T01:14:27.621Z,73.63
2023-02-22T01:16:57.353Z,71.80
2023-02-22T01:19:25.843Z,71.29
2023-02-22T01:21:55.522Z,72.52
2023-02-22T01:24:23.953Z,72.11
2023-02-22T01:26:53.847Z,71.74
2023-02-22T01:29:22.638Z,71.63
2023-02-22T01:31:56.819Z,71.60
2023-02-22T01:34:26.594Z,70.77
2023-02-22T01:36:54.962Z,70.87
2023-02-22T01:39:23.271Z,70.43
2023-02-22T01:41:54.664Z,70.24
2023-02-22T01:44:33.631Z,70.06
2023-02-22T01:47:04.023Z,69.88
2023-02-22T01:49:45.699Z,69.71
2023-02-22T01:52:18.723Z,68.96
2023-02-22T01:54:52.796Z,68.74
2023-02-22T01:57:28.124Z,68.79
2023-02-22T02:00:01.885Z,68.43
2023-02-22T02:02:30.558Z,68.74
2023-02-22T02:05:00.363Z,68.17
2023-02-22T02:07:30.575Z,68.23
2023-02-22T02:10:03.003Z,68.11
2023-02-22T02:12:33.938Z,68.26
2023-02-22T02:15:41.266Z,67.71
2023-02-22T02:18:13.597Z,67.59
2023-02-22T02:20:50.444Z,68.13
2023-02-22T02:23:46.439Z,68.49
2023-02-22T02:26:29.542Z,67.64
2023-02-22T02:29:27.714Z,66.31
2023-02-22T02:32:12.228Z,66.86
2023-02-22T02:35:25.009Z,66.40
2023-02-22T02:38:04.377Z,65.57
2023-02-22T02:41:00.086Z,64.92
2023-02-22T02:43:39.197Z,64.58
2023-02-22T02:46:50.618Z,65.43
2023-02-22T02:49:48.244Z,64.63
2023-02-22T02:52:20.604Z,63.90
2023-02-22T02:54:50.481Z,63.34
2023-02-22T02:57:18.848Z,64.91
2023-02-22T02:59:47.391Z,62.27
2023-02-22T03:02:35.178Z,64.37
2023-02-22T03:05:12.484Z,63.41
2023-02-22T03:07:46.495Z,62.03
2023-02-22T03:10:32.951Z,62.80
2023-02-22T03:13:10.933Z,61.45
2023-02-22T03:15:58.020Z,62.12
2023-02-22T03:18:41.072Z,61.42
2023-02-22T03:21:24.628Z,61.68
2023-02-22T03:24:11.279Z,60.46
2023-02-22T03:27:13.141Z,60.71
2023-02-22T03:29:45.236Z,60.93
2023-02-22T03:32:19.219Z,57.55
2023-02-22T03:35:01.403Z,56.99
2023-02-22T03:37:38.468Z,58.17
2023-02-22T03:40:16.030Z,59.13
2023-02-22T03:42:52.312Z,58.70
2023-02-22T03:45:24.718Z,58.59
2023-02-22T03:48:15.816Z,57.56
2023-02-22T03:50:44.259Z,59.01
2023-02-22T03:53:13.333Z,56.99
2023-02-22T03:55:41.745Z,56.10
2023-02-22T03:58:14.532Z,57.33
2023-02-22T04:00:45.420Z,57.76
2023-02-22T04:03:14.072Z,55.96
2023-02-22T04:05:42.598Z,57.72
2023-02-22T04:08:10.923Z,56.09
2023-02-22T04:10:40.686Z,56.23
2023-02-22T04:13:09.239Z,55.01
2023-02-22T04:15:39.602Z,57.77
2023-02-22T04:18:09.316Z,55.56
2023-02-22T04:20:38.265Z,54.42
2023-02-22T04:23:06.618Z,54.84
2023-02-22T04:25:34.945Z,54.20
2023-02-22T04:28:03.464Z,53.82
2023-02-22T04:30:31.912Z,55.28
2023-02-22T04:33:00.240Z,54.31
2023-02-22T04:35:28.528Z,55.49
2023-02-22T04:37:56.848Z,54.42
2023-02-22T04:40:25.585Z,53.04
2023-02-22T04:42:53.935Z,53.02
2023-02-22T04:45:22.250Z,53.08
2023-02-22T04:47:50.592Z,54.54
2023-02-22T04:50:19.119Z,53.48
2023-02-22T04:52:48.330Z,55.25
2023-02-22T04:55:17.597Z,51.87
2023-02-22T04:57:45.909Z,53.14
2023-02-22T05:00:19.179Z,54.39
2023-02-22T05:02:47.961Z,53.09
2023-02-22T05:05:17.728Z,52.03
2023-02-22T05:07:46.538Z,54.30
2023-02-22T05:10:15.104Z,52.31
2023-02-22T05:12:43.438Z,52.70
2023-02-22T05:15:12.272Z,51.30
2023-02-22T05:17:40.767Z,52.83
2023-02-22T05:20:09.530Z,52.82
2023-02-22T05:22:37.795Z,49.28
2023-02-22T05:25:06.767Z,50.61
2023-02-22T05:27:35.062Z,50.42
2023-02-22T05:30:03.407Z,51.85
2023-02-22T05:32:31.751Z,50.02
2023-02-22T05:35:00.035Z,50.84
2023-02-22T05:37:28.453Z,51.22
2023-02-22T05:39:56.748Z,51.85
2023-02-22T05:42:25.089Z,50.02
2023-02-22T05:44:53.383Z,50.59
2023-02-22T05:47:21.707Z,50.55
2023-02-22T05:49:50.001Z,50.81
2023-02-22T05:52:18.367Z,50.13
2023-02-22T05:54:46.678Z,49.29
2023-02-22T05:57:15.425Z,48.54
2023-02-22T05:59:44.147Z,47.61
2023-02-22T06:02:13.789Z,49.23
2023-02-22T06:04:46.561Z,47.67
2023-02-22T06:07:15.893Z,49.66
2023-02-22T06:09:44.218Z,48.58
2023-02-22T06:12:12.520Z,45.13
2023-02-22T06:14:41.994Z,47.80
2023-02-22T06:17:10.293Z,47.33
2023-02-22T06:19:38.753Z,47.31
2023-02-22T06:22:07.860Z,46.70
2023-02-22T06:24:39.408Z,48.03
2023-02-22T06:27:07.733Z,46.19
2023-02-22T06:29:36.038Z,44.76
2023-02-22T06:32:04.674Z,46.93
2023-02-22T06:34:33.253Z,46.90
2023-02-22T06:37:02.276Z,46.10
2023-02-22T06:39:30.619Z,46.10
2023-02-22T06:41:59.475Z,46.20
2023-02-22T06:44:28.209Z,45.89
2023-02-22T06:46:57.242Z,45.83
2023-02-22T06:49:25.534Z,45.61
2023-02-22T06:51:54.159Z,45.98
2023-02-22T06:54:23.802Z,44.22
2023-02-22T06:56:52.095Z,41.71
2023-02-22T06:59:20.383Z,44.89
2023-02-22T07:01:48.714Z,44.37
2023-02-22T07:04:17.501Z,43.92
2023-02-22T07:06:50.482Z,41.78
2023-02-22T07:09:20.086Z,42.57
2023-02-22T07:11:48.573Z,45.21
2023-02-22T07:14:20.013Z,45.43
2023-02-22T07:16:48.422Z,43.50
2023-02-22T07:19:16.741Z,41.53
2023-02-22T07:21:45.037Z,44.84
2023-02-22T07:24:13.407Z,42.03
2023-02-22T07:26:43.046Z,44.11
2023-02-22T07:29:12.249Z,42.41
2023-02-22T07:31:40.857Z,43.67
2023-02-22T07:34:24.629Z,43.83
2023-02-22T07:36:52.955Z,42.42
2023-02-22T07:39:21.614Z,42.59
2023-02-22T07:41:50.790Z,41.95
2023-02-22T07:44:19.084Z,43.62
2023-02-22T07:46:51.379Z,42.72
2023-02-22T07:49:19.876Z,41.26
2023-02-22T07:51:48.282Z,40.47
2023-02-22T07:54:16.615Z,42.80
2023-02-22T07:56:49.036Z,41.18
2023-02-22T07:59:17.819Z,41.44
2023-02-22T08:01:46.124Z,43.51
2023-02-22T08:04:14.442Z,43.60
2023-02-22T08:06:42.708Z,42.49
2023-02-22T08:09:11.152Z,42.31
2023-02-22T08:11:39.543Z,41.77
2023-02-22T08:14:07.880Z,41.16
2023-02-22T08:16:36.277Z,41.44
2023-02-22T08:19:04.658Z,44.38
2023-02-22T08:21:33.011Z,42.83
2023-02-22T08:24:01.341Z,41.56
2023-02-22T08:26:29.704Z,42.40
2023-02-22T08:28:58.014Z,43.15
2023-02-22T08:31:26.384Z,42.40
2023-02-22T08:33:54.932Z,42.17
2023-02-22T08:36:23.233Z,41.64
2023-02-22T08:38:51.522Z,42.07
2023-02-22T08:41:19.970Z,41.06
2023-02-22T08:43:48.304Z,42.88
2023-02-22T08:46:18.936Z,41.33
2023-02-22T08:48:54.103Z,42.99
2023-02-22T08:51:22.744Z,42.21
2023-02-22T08:53:51.156Z,42.67
2023-02-22T08:56:19.618Z,44.07
2023-02-22T08:58:48.033Z,41.02
2023-02-22T09:01:28.018Z,42.48
2023-02-22T09:04:01.007Z,41.47
2023-02-22T09:06:30.630Z,41.10
2023-02-22T09:08:58.987Z,40.81
2023-02-22T09:11:27.272Z,41.22
2023-02-22T09:13:55.585Z,41.02
2023-02-22T09:16:23.954Z,43.12
2023-02-22T09:18:52.378Z,41.73
2023-02-22T09:21:20.688Z,41.44
2023-02-22T09:23:49.778Z,41.38
2023-02-22T09:26:18.088Z,40.61
2023-02-22T09:28:46.371Z,41.47
2023-02-22T09:31:14.847Z,42.92
2023-02-22T09:33:44.308Z,42.05
2023-02-22T09:36:13.734Z,42.39
2023-02-22T09:38:42.154Z,42.77
2023-02-22T09:41:36.382Z,44.33
2023-02-22T09:44:37.782Z,43.85
2023-02-22T09:47:11.553Z,44.75
2023-02-22T09:49:48.299Z,44.00
2023-02-22T09:52:29.191Z,42.70
2023-02-22T09:55:09.681Z,43.03
2023-02-22T09:57:44.785Z,43.90
2023-02-22T10:00:30.289Z,42.63
2023-02-22T10:03:31.733Z,42.18
2023-02-22T10:06:13.864Z,44.21
2023-02-22T10:08:45.948Z,45.11
2023-02-22T10:11:47.631Z,43.66
2023-02-22T10:15:07.251Z,44.67
2023-02-22T10:18:00.848Z,44.13
2023-02-22T10:20:54.216Z,43.68
2023-02-22T10:23:37.846Z,43.92
2023-02-22T10:26:18.072Z,43.21
2023-02-22T10:29:23.621Z,44.25
2023-02-22T10:32:05.286Z,45.06
2023-02-22T10:34:55.674Z,47.31
2023-02-22T10:37:27.145Z,47.19
2023-02-22T10:40:18.306Z,47.29
2023-02-22T10:42:46.771Z,47.68
2023-02-22T10:45:25.821Z,48.06
2023-02-22T10:47:59.802Z,49.39
2023-02-22T10:50:33.266Z,49.59
2023-02-22T10:53:01.581Z,48.98
2023-02-22T10:55:30.117Z,48.64
2023-02-22T10:58:05.605Z,48.94
2023-02-22T11:00:40.075Z,49.16
2023-02-22T11:03:20.613Z,51.39
2023-02-22T11:05:50.418Z,51.25
2023-02-22T11:08:33.803Z,53.06
2023-02-22T11:11:05.813Z,52.61
2023-02-22T11:13:41.382Z,52.57
2023-02-22T11:16:21.122Z,52.07
2023-02-22T11:18:49.950Z,52.52
2023-02-22T11:21:24.497Z,52.85
2023-02-22T11:24:04.249Z,53.45
2023-02-22T11:26:44.731Z,54.10
2023-02-22T11:29:37.944Z,54.22
2023-02-22T11:32:22.170Z,54.96
2023-02-22T11:35:03.680Z,55.83
2023-02-22T11:37:37.859Z,57.34
2023-02-22T11:40:26.438Z,56.98
2023-02-22T11:43:19.225Z,57.21
2023-02-22T11:46:06.920Z,57.33
2023-02-22T11:48:40.114Z,57.62
2023-02-22T11:51:17.897Z,57.63
2023-02-22T11:54:40.111Z,58.85
2023-02-22T11:57:19.539Z,58.51
2023-02-22T12:00:17.301Z,58.42
2023-02-22T12:03:10.589Z,58.54
2023-02-22T12:05:41.532Z,59.77
2023-02-22T12:08:26.818Z,61.23
2023-02-22T12:11:23.678Z,62.20
2023-02-22T12:13:52.011Z,62.42
2023-02-22T12:16:22.997Z,61.85
2023-02-22T12:19:08.322Z,61.27
2023-02-22T12:21:42.465Z,61.40
2023-02-22T12:24:24.937Z,61.51
2023-02-22T12:27:03.512Z,62.15
2023-02-22T12:29:48.064Z,63.92
2023-02-22T12:32:18.057Z,63.38
2023-02-22T12:34:55.228Z,63.85
2023-02-22T12:37:52.193Z,64.58
2023-02-22T12:40:37.258Z,65.51
2023-02-22T12:43:32.916Z,65.06
2023-02-22T12:46:30.101Z,64.62
2023-02-22T12:49:36.768Z,63.72
2023-02-22T12:52:43.329Z,64.79
2023-02-22T12:55:32.669Z,64.74
2023-02-22T12:58:46.537Z,65.09
2023-02-22T13:01:22.402Z,66.45
2023-02-22T13:03:50.853Z,67.24
2023-02-22T13:06:40.514Z,68.25
2023-02-22T13:09:25.371Z,67.59
2023-02-22T13:12:05.517Z,69.73
2023-02-22T13:14:44.382Z,69.60
2023-02-22T13:17:33.711Z,68.25
2023-02-22T13:20:02.013Z,68.15
2023-02-22T13:22:55.019Z,68.04
2023-02-22T13:25:51.353Z,68.09
2023-02-22T13:28:46.858Z,67.75
2023-02-22T13:31:50.094Z,69.68
2023-02-22T13:34:33.327Z,71.20
2023-02-22T13:37:18.657Z,70.87
2023-02-22T13:40:11.553Z,70.28
2023-02-22T13:42:52.043Z,70.68
2023-02-22T13:45:52.719Z,70.55
2023-02-22T13:48:45.771Z,70.83
2023-02-22T13:51:40.301Z,70.77
2023-02-22T13:54:47.558Z,71.15
2023-02-22T13:57:26.911Z,71.46
2023-02-22T14:00:39.819Z,71.78
2023-02-22T14:03:13.862Z,72.50
2023-02-22T14:05:48.242Z,72.36
2023-02-22T14:08:45.483Z,72.20
2023-02-22T14:11:18.205Z,71.98
2023-02-22T14:14:01.820Z,70.87
2023-02-22T14:16:34.813Z,71.11
2023-02-22T14:19:07.444Z,72.26
2023-02-22T14:21:36.398Z,73.21
2023-02-22T14:24:13.115Z,73.02
2023-02-22T14:26:44.919Z,75.15
2023-02-22T14:29:19.848Z,75.65
2023-02-22T14:31:51.624Z,75.75
2023-02-22T14:34:41.655Z,75.59
2023-02-22T14:37:29.769Z,75.60
2023-02-22T14:40:19.397Z,75.62
2023-02-22T14:42:52.369Z,74.99
2023-02-22T14:45:34.852Z,74.47
2023-02-22T14:48:12.503Z,73.56
2023-02-22T14:50:58.656Z,72.54
2023-02-22T14:53:46.188Z,69.78
2023-02-22T14:56:37.132Z,71.17
2023-02-22T14:59:21.297Z,73.84
2023-02-22T15:02:02.157Z,73.80
2023-02-22T15:04:38.812Z,74.23
2023-02-22T15:07:38.961Z,74.86
2023-02-22T15:10:27.956Z,74.07
2023-02-22T15:13:11.805Z,72.80
2023-02-22T15:15:49.597Z,70.45
2023-02-22T15:18:54.677Z,71.72
2023-02-22T15:21:27.904Z,73.21
2023-02-22T15:24:08.649Z,73.76
2023-02-22T15:26:55.576Z,74.94
2023-02-22T15:29:38.312Z,74.06
2023-02-22T15:32:32.674Z,75.41
2023-02-22T15:35:22.208Z,76.27
2023-02-22T15:38:04.904Z,76.30
2023-02-22T15:40:34.947Z,76.17
2023-02-22T15:43:09.678Z,76.72
2023-02-22T15:45:43.692Z,77.32
2023-02-22T15:48:13.394Z,78.57
2023-02-22T15:50:59.024Z,79.78
2023-02-22T15:53:40.994Z,79.54
2023-02-22T15:56:30.931Z,79.35
2023-02-22T15:59:12.094Z,78.35
2023-02-22T16:01:43.678Z,79.19
2023-02-22T16:04:24.440Z,78.78
2023-02-22T16:07:02.266Z,78.45
2023-02-22T16:09:31.374Z,77.20
2023-02-22T16:12:12.597Z,78.90
2023-02-22T16:14:46.387Z,78.18
2023-02-22T16:17:36.417Z,77.83
2023-02-22T16:20:22.868Z,78.82
2023-02-22T16:22:51.965Z,79.58
2023-02-22T16:25:20.263Z,79.86
2023-02-22T16:27:49.909Z,80.76
2023-02-22T16:30:26.861Z,80.03
2023-02-22T16:32:59.128Z,80.54
2023-02-22T16:35:31.768Z,80.81
2023-02-22T16:38:07.092Z,80.23
2023-02-22T16:40:45.528Z,80.28
2023-02-22T16:43:18.408Z,80.79
2023-02-22T16:45:47.656Z,80.01
2023-02-22T16:48:20.847Z,81.08
2023-02-22T16:50:54.935Z,81.34
2023-02-22T16:53:26.581Z,80.14
2023-02-22T16:56:01.593Z,79.11
2023-02-22T16:58:34.068Z,75.96
2023-02-22T17:01:02.607Z,74.72
2023-02-22T17:03:30.925Z,75.61
2023-02-22T17:05:59.307Z,75.60
2023-02-22T17:08:27.693Z,76.46
2023-02-22T17:10:57.737Z,76.29
2023-02-22T17:13:28.208Z,75.54
2023-02-22T17:15:57.622Z,75.69
2023-02-22T17:18:29.414Z,74.82
2023-02-22T17:20:58.234Z,75.02
2023-02-22T17:23:28.521Z,75.42
2023-02-22T17:26:05.654Z,75.04
2023-02-22T17:28:34.038Z,74.84
2023-02-22T17:31:02.588Z,74.66
2023-02-22T17:33:34.101Z,74.58
2023-02-22T17:36:04.876Z,74.16
2023-02-22T17:38:33.530Z,73.31
2023-02-22T17:41:02.357Z,72.33
2023-02-22T17:43:31.023Z,68.71
2023-02-22T17:45:59.514Z,68.09
2023-02-22T17:48:28.348Z,66.60
2023-02-22T17:50:56.944Z,66.92
2023-02-22T17:53:26.377Z,66.63
2023-02-22T17:55:54.730Z,65.79
2023-02-22T17:58:24.496Z,66.12
2023-02-22T18:01:00.033Z,65.95
2023-02-22T18:03:30.029Z,65.27
2023-02-22T18:06:01.255Z,65.59
2023-02-22T18:08:31.974Z,65.40
2023-02-22T18:11:05.892Z,65.59
2023-02-22T18:13:34.205Z,65.31
2023-02-22T18:16:05.913Z,65.17
2023-02-22T18:18:34.819Z,65.31
2023-02-22T18:21:04.667Z,65.36
2023-02-22T18:23:33.914Z,64.93
2023-02-22T18:26:11.087Z,65.40
2023-02-22T18:28:40.530Z,65.45
2023-02-22T18:31:17.388Z,64.69
2023-02-22T18:33:48.164Z,65.33
2023-02-22T18:36:18.635Z,65.40
2023-02-22T18:38:47.198Z,65.74
2023-02-22T18:41:18.400Z,65.40
2023-02-22T18:43:47.602Z,65.50
2023-02-22T18:46:22.406Z,65.56
2023-02-22T18:48:56.510Z,65.54
2023-02-22T18:51:26.612Z,65.73
2023-02-22T18:54:01.073Z,65.95
2023-02-22T18:56:31.075Z,65.84
2023-02-22T18:59:02.096Z,65.93
2023-02-22T19:01:36.480Z,65.98
2023-02-22T19:04:04.952Z,66.55
2023-02-22T19:06:35.916Z,66.52
2023-02-22T19:09:06.041Z,66.66
2023-02-22T19:11:34.344Z,66.82
2023-02-22T19:14:05.021Z,68.50
2023-02-22T19:16:33.977Z,68.02
2023-02-22T19:19:02.418Z,68.43
2023-02-22T19:21:33.352Z,69.38
2023-02-22T19:24:02.543Z,68.50
2023-02-22T19:26:31.713Z,70.55
2023-02-22T19:29:05.755Z,71.41
2023-02-22T19:31:35.003Z,70.62
2023-02-22T19:34:12.325Z,70.69
2023-02-22T19:36:43.810Z,70.88
2023-02-22T19:39:12.639Z,68.95
2023-02-22T19:41:41.438Z,68.24
2023-02-22T19:44:10.240Z,68.38
2023-02-22T19:46:38.805Z,68.77
2023-02-22T19:49:08.286Z,68.08
2023-02-22T19:51:36.718Z,68.59
2023-02-22T19:54:09.186Z,68.79
2023-02-22T19:56:37.760Z,69.34
2023-02-22T19:59:14.417Z,69.58
2023-02-22T20:01:46.948Z,70.90
2023-02-22T20:04:31.371Z,71.47
2023-02-22T20:06:59.779Z,73.34
2023-02-22T20:09:44.093Z,72.66
2023-02-22T20:12:12.389Z,72.43
2023-02-22T20:14:40.843Z,73.46
2023-02-22T20:17:10.258Z,73.21
2023-02-22T20:19:39.710Z,73.98
2023-02-22T20:22:08.083Z,73.99
2023-02-22T20:24:36.370Z,73.55
2023-02-22T20:27:04.737Z,75.24
2023-02-22T20:29:33.079Z,75.84
2023-02-22T20:32:03.230Z,76.63
2023-02-22T20:34:33.344Z,77.55
2023-02-22T20:37:02.700Z,77.17
2023-02-22T20:39:31.140Z,76.92
2023-02-22T20:42:03.636Z,77.19
2023-02-22T20:44:32.113Z,77.84
2023-02-22T20:47:00.495Z,77.73
2023-02-22T20:49:28.864Z,77.87
2023-02-22T20:51:57.503Z,77.99
2023-02-22T20:54:26.443Z,77.96
2023-02-22T20:56:54.895Z,78.39
2023-02-22T20:59:23.525Z,78.40
2023-02-22T21:01:53.906Z,77.79
2023-02-22T21:04:25.687Z,78.35
2023-02-22T21:06:54.103Z,78.74
2023-02-22T21:09:22.951Z,78.69
2023-02-22T21:11:51.477Z,78.31
2023-02-22T21:14:20.730Z,78.39
2023-02-22T21:16:52.211Z,79.06
2023-02-22T21:19:32.905Z,79.73
2023-02-22T21:22:07.176Z,79.99
2023-02-22T21:24:36.997Z,79.63
2023-02-22T21:27:07.776Z,80.02
2023-02-22T21:29:36.496Z,80.70
2023-02-22T21:32:05.286Z,80.93
2023-02-22T21:34:33.710Z,80.83
2023-02-22T21:37:02.160Z,81.21
2023-02-22T21:39:30.498Z,81.06
2023-02-22T21:42:02.043Z,80.69
2023-02-22T21:44:31.049Z,80.77
2023-02-22T21:46:59.456Z,81.20
2023-02-22T21:49:27.840Z,81.89
2023-02-22T21:51:56.163Z,82.06
2023-02-22T21:54:25.176Z,81.61
2023-02-22T21:56:55.330Z,80.93
2023-02-22T21:59:24.670Z,79.99
2023-02-22T22:01:56.636Z,81.90
2023-02-22T22:04:29.517Z,81.46
2023-02-22T22:07:00.265Z,81.65
2023-02-22T22:09:33.610Z,81.80
2023-02-22T22:12:05.904Z,83.42
2023-02-22T22:14:35.970Z,83.94
2023-02-22T22:17:07.990Z,84.13
2023-02-22T22:19:42.473Z,84.10
2023-02-22T22:22:11.232Z,83.88
2023-02-22T22:24:42.590Z,84.25
2023-02-22T22:27:13.770Z,83.26
2023-02-22T22:29:42.360Z,83.56
2023-02-22T22:32:11.491Z,83.19
2023-02-22T22:34:40.054Z,82.37
2023-02-22T22:37:09.613Z,83.24
2023-02-22T22:39:39.460Z,82.87
2023-02-22T22:42:09.891Z,83.03
2023-02-22T22:44:42.956Z,82.63
2023-02-22T22:47:14.034Z,82.60
2023-02-22T22:49:43.411Z,82.20
2023-02-22T22:52:14.924Z,82.29
2023-02-22T22:54:44.808Z,81.84
2023-02-22T22:57:13.297Z,81.62
2023-02-22T22:59:41.658Z,81.79
2023-02-22T23:02:12.318Z,81.40
2023-02-22T23:04:40.628Z,80.31
2023-02-22T23:07:08.941Z,79.03
2023-02-22T23:09:39.655Z,79.49
2023-02-22T23:12:17.574Z,79.40
2023-02-22T23:14:46.866Z,79.32
2023-02-22T23:17:27.688Z,79.38
2023-02-22T23:19:55.989Z,78.54
2023-02-22T23:22:24.757Z,78.86
2023-02-22T23:24:53.191Z,79.44
2023-02-22T23:27:21.578Z,78.52
2023-02-22T23:29:50.560Z,78.23
2023-02-22T23:32:18.964Z,78.48
2023-02-22T23:34:50.493Z,79.69
2023-02-22T23:37:21.564Z,79.64
2023-02-22T23:39:51.855Z,79.57
2023-02-22T23:42:20.375Z,79.01
2023-02-22T23:44:49.495Z,77.43
2023-02-22T23:47:17.810Z,78.60
2023-02-22T23:49:46.407Z,80.00
2023-02-22T23:52:14.709Z,80.30
2023-02-22T23:54:47.436Z,78.49
2023-02-22T23:57:18.472Z,78.45
2023-02-22T23:59:47.381Z,79.25
